createdAt,value
2018-06-09T00:00:27.121Z,4.27
2018-06-09T00:02:54.809Z,4.77
2018-06-09T00:05:22.119Z,5.70
2018-06-09T00:07:49.037Z,5.33
2018-06-09T00:10:15.996Z,4.93
2018-06-09T00:12:42.953Z,4.43
2018-06-09T00:15:09.948Z,4.20
2018-06-09T00:17:36.937Z,4.57
2018-06-09T00:20:03.919Z,5.13
2018-06-09T00:22:30.946Z,5.07
2018-06-09T00:24:57.916Z,4.83
2018-06-09T00:27:24.874Z,5.20
2018-06-09T00:29:51.836Z,5.13
2018-06-09T00:32:19.113Z,4.37
2018-06-09T00:34:46.106Z,4.80
2018-06-09T00:37:13.164Z,4.70
2018-06-09T00:39:40.140Z,5.67
2018-06-09T00:42:07.134Z,5.10
2018-06-09T00:44:34.074Z,4.13
2018-06-09T00:47:01.276Z,5.00
2018-06-09T00:49:28.253Z,4.73
2018-06-09T00:51:55.395Z,5.33
2018-06-09T00:54:22.580Z,5.80
2018-06-09T00:56:50.024Z,5.03
2018-06-09T00:59:17.072Z,5.20
2018-06-09T01:01:44.008Z,5.63
2018-06-09T01:04:10.956Z,5.70
2018-06-09T01:06:37.874Z,5.10
2018-06-09T01:09:06.773Z,5.50
2018-06-09T01:11:33.747Z,5.40
2018-06-09T01:14:00.882Z,4.70
2018-06-09T01:16:27.833Z,4.73
2018-06-09T01:18:55.053Z,5.27
2018-06-09T01:21:22.033Z,4.80
2018-06-09T01:23:48.966Z,5.00
2018-06-09T01:26:15.916Z,4.78
2018-06-09T01:28:42.839Z,5.57
2018-06-09T01:31:09.811Z,4.57
2018-06-09T01:33:36.758Z,5.90
2018-06-09T01:36:03.714Z,5.60
2018-06-09T01:38:30.649Z,6.07
2018-06-09T01:40:57.608Z,6.20
2018-06-09T01:43:24.786Z,4.60
2018-06-09T01:45:51.757Z,5.37
2018-06-09T01:48:18.763Z,4.80
2018-06-09T01:50:45.722Z,5.90
2018-06-09T01:53:12.698Z,5.00
2018-06-09T01:55:39.737Z,4.93
2018-06-09T01:58:06.672Z,6.03
2018-06-09T02:00:33.596Z,5.40
2018-06-09T02:03:00.535Z,6.00
2018-06-09T02:05:27.460Z,5.10
2018-06-09T02:07:54.393Z,5.33
2018-06-09T02:10:21.373Z,6.10
2018-06-09T02:12:48.317Z,5.90
2018-06-09T02:15:15.247Z,4.93
2018-06-09T02:17:42.199Z,4.93
2018-06-09T02:20:09.139Z,4.70
2018-06-09T02:22:36.077Z,5.20
2018-06-09T02:25:03.042Z,4.90
2018-06-09T02:27:30.016Z,5.73
2018-06-09T02:29:56.968Z,4.50
2018-06-09T02:32:23.906Z,5.30
2018-06-09T02:34:50.858Z,5.87
2018-06-09T02:37:17.780Z,5.33
2018-06-09T02:39:44.741Z,5.40
2018-06-09T02:42:11.653Z,5.30
2018-06-09T02:44:38.589Z,5.87
2018-06-09T02:47:05.564Z,5.70
2018-06-09T02:49:32.514Z,5.67
2018-06-09T02:51:59.505Z,5.33
2018-06-09T02:54:26.468Z,5.50
2018-06-09T02:56:53.464Z,5.47
2018-06-09T02:59:20.406Z,4.90
2018-06-09T03:01:47.371Z,5.20
2018-06-09T03:04:14.316Z,5.80
2018-06-09T03:06:41.255Z,5.23
2018-06-09T03:09:08.194Z,5.83
2018-06-09T03:11:35.181Z,5.77
2018-06-09T03:14:02.177Z,5.43
2018-06-09T03:16:29.121Z,5.43
2018-06-09T03:18:56.051Z,5.93
2018-06-09T03:21:22.994Z,6.30
2018-06-09T03:23:49.936Z,6.17
2018-06-09T03:26:16.894Z,5.60
2018-06-09T03:28:43.845Z,5.83
2018-06-09T03:31:10.807Z,5.77
2018-06-09T03:33:37.761Z,6.53
2018-06-09T03:36:04.772Z,5.70
2018-06-09T03:38:31.700Z,5.70
2018-06-09T03:40:58.686Z,5.50
2018-06-09T03:43:25.723Z,6.43
2018-06-09T03:45:52.641Z,6.50
2018-06-09T03:48:19.580Z,5.97
2018-06-09T03:50:46.504Z,6.10
2018-06-09T03:53:13.444Z,5.90
2018-06-09T03:55:40.645Z,6.40
2018-06-09T03:58:07.567Z,6.07
2018-06-09T04:00:34.508Z,6.60
2018-06-09T04:03:01.429Z,6.50
2018-06-09T04:05:28.356Z,5.70
2018-06-09T04:07:55.297Z,6.20
2018-06-09T04:10:22.250Z,5.67
2018-06-09T04:12:49.221Z,6.07
2018-06-09T04:15:16.283Z,6.37
2018-06-09T04:17:43.217Z,6.00
2018-06-09T04:20:10.147Z,6.40
2018-06-09T04:22:37.081Z,6.23
2018-06-09T04:25:04.004Z,5.60
2018-06-09T04:27:31.275Z,5.80
2018-06-09T04:29:58.207Z,6.40
2018-06-09T04:32:25.132Z,6.57
2018-06-09T04:34:52.059Z,6.23
2018-06-09T04:37:19.009Z,6.20
2018-06-09T04:39:45.959Z,5.60
2018-06-09T04:42:13.784Z,6.20
2018-06-09T04:44:40.728Z,5.97
2018-06-09T04:47:07.660Z,9.93
2018-06-09T04:49:34.599Z,6.20
2018-06-09T04:52:01.544Z,7.37
2018-06-09T04:54:28.497Z,5.40
2018-06-09T04:56:55.469Z,5.80
2018-06-09T04:59:22.452Z,5.60
2018-06-09T05:01:49.379Z,5.50
2018-06-09T05:04:16.331Z,5.43
2018-06-09T05:06:43.302Z,5.40
2018-06-09T05:09:10.237Z,5.47
2018-06-09T05:11:37.152Z,5.50
2018-06-09T05:14:04.110Z,5.13
2018-06-09T05:16:31.043Z,5.57
2018-06-09T05:18:57.975Z,5.63
2018-06-09T05:21:24.925Z,5.30
2018-06-09T05:23:51.889Z,5.57
2018-06-09T05:26:18.854Z,5.33
2018-06-09T05:28:45.850Z,6.00
2018-06-09T05:31:12.833Z,5.07
2018-06-09T05:33:39.746Z,5.10
2018-06-09T05:36:06.694Z,5.33
2018-06-09T05:38:33.739Z,5.90
2018-06-09T05:41:00.679Z,5.70
2018-06-09T05:43:27.630Z,4.93
2018-06-09T05:45:54.659Z,6.40
2018-06-09T05:48:21.614Z,5.13
2018-06-09T05:50:48.562Z,5.37
2018-06-09T05:53:15.503Z,5.17
2018-06-09T05:55:42.457Z,4.80
2018-06-09T05:58:09.463Z,4.80
2018-06-09T06:00:36.435Z,4.90
2018-06-09T06:03:03.402Z,5.47
2018-06-09T06:05:30.342Z,5.70
2018-06-09T06:07:57.289Z,5.03
2018-06-09T06:10:24.281Z,5.03
2018-06-09T06:12:51.247Z,4.50
2018-06-09T06:15:18.176Z,4.60
2018-06-09T06:17:45.148Z,4.97
2018-06-09T06:20:12.086Z,4.87
2018-06-09T06:22:39.008Z,5.10
2018-06-09T06:25:05.941Z,4.97
2018-06-09T06:27:32.888Z,5.67
2018-06-09T06:29:59.832Z,5.10
2018-06-09T06:32:26.755Z,4.90
2018-06-09T06:34:53.706Z,4.60
2018-06-09T06:37:20.619Z,4.57
2018-06-09T06:39:47.556Z,4.33
2018-06-09T06:42:14.518Z,4.90
2018-06-09T06:44:41.712Z,4.37
2018-06-09T06:47:08.647Z,4.63
2018-06-09T06:49:35.596Z,6.63
2018-06-09T06:52:02.548Z,5.87
2018-06-09T06:54:29.501Z,4.00
2018-06-09T06:56:56.484Z,3.90
2018-06-09T06:59:23.418Z,3.90
2018-06-09T07:01:50.340Z,6.10
2018-06-09T07:04:17.288Z,4.43
2018-06-09T07:06:44.231Z,4.30
2018-06-09T07:09:11.145Z,4.10
2018-06-09T07:11:38.094Z,5.20
2018-06-09T07:14:05.127Z,3.93
2018-06-09T07:16:32.156Z,5.17
2018-06-09T07:18:59.125Z,4.90
2018-06-09T07:21:26.043Z,5.27
2018-06-09T07:23:53.092Z,6.77
2018-06-09T07:26:20.142Z,3.60
2018-06-09T07:28:47.064Z,3.37
2018-06-09T07:31:14.031Z,3.90
2018-06-09T07:33:40.971Z,3.70
2018-06-09T07:36:07.902Z,5.83
2018-06-09T07:38:34.845Z,4.57
2018-06-09T07:41:01.788Z,4.70
2018-06-09T07:43:28.725Z,7.03
2018-06-09T07:45:55.665Z,3.93
2018-06-09T07:48:22.635Z,3.90
2018-06-09T07:50:49.589Z,4.43
2018-06-09T07:53:16.547Z,3.90
2018-06-09T07:55:43.523Z,6.20
2018-06-09T07:58:10.469Z,4.13
2018-06-09T08:00:37.425Z,4.73
2018-06-09T08:03:04.403Z,6.30
2018-06-09T08:05:31.439Z,4.60
2018-06-09T08:07:58.480Z,4.70
2018-06-09T08:10:25.551Z,4.50
2018-06-09T08:12:52.584Z,4.30
2018-06-09T08:15:19.615Z,3.90
2018-06-09T08:17:46.651Z,6.40
2018-06-09T08:20:13.589Z,4.17
2018-06-09T08:22:40.536Z,3.23
2018-06-09T08:25:07.538Z,5.50
2018-06-09T08:27:34.503Z,4.50
2018-06-09T08:30:01.435Z,3.70
2018-06-09T08:32:28.427Z,3.93
2018-06-09T08:34:56.289Z,4.40
2018-06-09T08:37:23.238Z,3.50
2018-06-09T08:39:50.175Z,3.20
2018-06-09T08:42:17.116Z,3.30
2018-06-09T08:44:44.054Z,3.40
2018-06-09T08:47:10.994Z,3.87
2018-06-09T08:49:37.947Z,3.70
2018-06-09T08:52:04.880Z,3.43
2018-06-09T08:54:31.883Z,9.37
2018-06-09T08:56:58.807Z,3.87
2018-06-09T08:59:25.773Z,3.50
2018-06-09T09:01:52.759Z,3.40
2018-06-09T09:04:19.701Z,3.00
2018-06-09T09:06:46.639Z,3.17
2018-06-09T09:09:13.613Z,4.00
2018-06-09T09:11:40.559Z,3.30
2018-06-09T09:14:07.487Z,5.73
2018-06-09T09:16:34.502Z,3.47
2018-06-09T09:19:01.382Z,3.50
2018-06-09T09:21:28.351Z,3.10
2018-06-09T09:23:55.784Z,3.87
2018-06-09T09:26:22.719Z,3.97
2018-06-09T09:28:49.755Z,3.20
2018-06-09T09:31:16.839Z,4.17
2018-06-09T09:33:44.207Z,3.80
2018-06-09T09:36:11.262Z,3.73
2018-06-09T09:38:38.307Z,3.47
2018-06-09T09:41:05.814Z,3.30
2018-06-09T09:43:32.830Z,4.13
2018-06-09T09:45:59.862Z,4.50
2018-06-09T09:48:26.890Z,3.90
2018-06-09T09:50:53.926Z,3.30
2018-06-09T09:53:20.996Z,5.80
2018-06-09T09:55:48.024Z,6.10
2018-06-09T09:58:15.048Z,4.20
2018-06-09T10:00:42.080Z,4.40
2018-06-09T10:03:09.134Z,3.33
2018-06-09T10:05:36.159Z,3.70
2018-06-09T10:08:03.200Z,3.50
2018-06-09T10:10:30.232Z,3.97
2018-06-09T10:12:57.310Z,3.23
2018-06-09T10:15:24.363Z,4.00
2018-06-09T10:17:51.380Z,4.30
2018-06-09T10:20:18.413Z,3.30
2018-06-09T10:22:45.460Z,8.07
2018-06-09T10:25:12.492Z,3.20
2018-06-09T10:27:39.520Z,7.53
2018-06-09T10:30:06.555Z,3.40
2018-06-09T10:32:33.590Z,2.97
2018-06-09T10:35:00.611Z,2.63
2018-06-09T10:37:27.668Z,3.73
2018-06-09T10:39:54.741Z,3.60
2018-06-09T10:42:21.788Z,3.40
2018-06-09T10:44:48.874Z,3.27
2018-06-09T10:47:15.930Z,3.00
2018-06-09T10:49:42.993Z,4.60
2018-06-09T10:52:10.052Z,8.23
2018-06-09T10:54:37.075Z,4.30
2018-06-09T10:57:04.116Z,3.70
2018-06-09T10:59:31.169Z,3.90
2018-06-09T11:01:58.209Z,3.30
2018-06-09T11:04:25.265Z,3.43
2018-06-09T11:06:52.348Z,3.03
2018-06-09T11:09:19.383Z,2.40
2018-06-09T11:11:46.843Z,3.10
2018-06-09T11:14:13.993Z,3.50
2018-06-09T11:16:41.019Z,3.50
2018-06-09T11:19:08.074Z,3.10
2018-06-09T11:21:35.102Z,5.20
2018-06-09T11:24:02.139Z,3.60
2018-06-09T11:26:29.190Z,5.90
2018-06-09T11:28:56.244Z,3.50
2018-06-09T11:31:23.278Z,2.43
2018-06-09T11:33:50.333Z,4.30
2018-06-09T11:36:17.376Z,3.00
2018-06-09T11:38:44.409Z,7.30
2018-06-09T11:41:11.437Z,6.30
2018-06-09T11:43:38.522Z,2.90
2018-06-09T11:46:05.579Z,3.93
2018-06-09T11:48:32.623Z,3.90
2018-06-09T11:50:59.669Z,4.30
2018-06-09T11:53:26.695Z,3.60
2018-06-09T11:55:53.752Z,3.93
2018-06-09T11:58:20.809Z,4.53
2018-06-09T12:00:47.851Z,5.10
2018-06-09T12:03:14.904Z,5.07
2018-06-09T12:05:42.078Z,4.90
2018-06-09T12:08:09.088Z,4.53
2018-06-09T12:10:36.120Z,4.83
2018-06-09T12:13:03.171Z,6.60
2018-06-09T12:15:30.245Z,5.50
2018-06-09T12:17:57.302Z,5.07
2018-06-09T12:20:24.344Z,4.00
2018-06-09T12:22:51.385Z,3.80
2018-06-09T12:25:18.452Z,6.20
2018-06-09T12:27:45.728Z,5.27
2018-06-09T12:30:12.767Z,3.60
2018-06-09T12:32:39.822Z,4.33
2018-06-09T12:35:06.884Z,4.00
2018-06-09T12:37:33.927Z,4.17
2018-06-09T12:40:00.960Z,4.80
2018-06-09T12:42:28.059Z,3.63
2018-06-09T12:44:55.099Z,4.40
2018-06-09T12:47:22.145Z,5.10
2018-06-09T12:49:49.198Z,3.90
2018-06-09T12:52:16.245Z,4.83
2018-06-09T12:54:43.275Z,7.67
2018-06-09T12:57:10.318Z,4.43
2018-06-09T12:59:37.343Z,3.90
2018-06-09T13:02:04.368Z,4.30
2018-06-09T13:04:31.418Z,4.07
2018-06-09T13:06:58.488Z,4.57
2018-06-09T13:09:25.525Z,4.77
2018-06-09T13:11:52.556Z,4.07
2018-06-09T13:14:19.583Z,4.40
2018-06-09T13:16:46.599Z,3.80
2018-06-09T13:19:13.841Z,4.63
2018-06-09T13:21:40.676Z,4.50
2018-06-09T13:24:07.702Z,3.70
2018-06-09T13:26:34.779Z,3.73
2018-06-09T13:29:01.799Z,4.10
2018-06-09T13:31:28.815Z,4.63
2018-06-09T13:33:55.898Z,6.87
2018-06-09T13:36:22.923Z,3.90
2018-06-09T13:38:49.950Z,4.60
2018-06-09T13:41:17.053Z,3.87
2018-06-09T13:43:44.121Z,4.50
2018-06-09T13:46:11.148Z,4.00
2018-06-09T13:48:38.192Z,4.37
2018-06-09T13:51:05.223Z,4.13
2018-06-09T13:53:32.357Z,5.97
2018-06-09T13:55:59.408Z,5.07
2018-06-09T13:58:26.452Z,4.23
2018-06-09T14:00:53.492Z,5.23
2018-06-09T14:03:20.576Z,5.30
2018-06-09T14:05:47.699Z,5.33
2018-06-09T14:08:14.811Z,5.60
2018-06-09T14:10:41.864Z,4.37
2018-06-09T14:13:08.905Z,4.30
2018-06-09T14:18:09.921Z,4.30
2018-06-09T14:20:36.952Z,4.50
2018-06-09T14:23:04.012Z,4.63
2018-06-09T14:25:31.062Z,4.40
2018-06-09T14:27:58.115Z,3.93
2018-06-09T14:30:25.169Z,5.10
2018-06-09T14:32:52.240Z,5.30
2018-06-09T14:35:19.288Z,4.57
2018-06-09T14:37:46.338Z,4.50
2018-06-09T14:40:13.395Z,4.97
2018-06-09T14:42:40.427Z,4.10
2018-06-09T14:45:07.502Z,4.80
2018-06-09T14:47:34.534Z,4.13
2018-06-09T14:50:01.564Z,4.63
2018-06-09T14:52:28.599Z,6.70
2018-06-09T14:54:55.627Z,4.77
2018-06-09T14:57:22.653Z,5.40
2018-06-09T14:59:49.679Z,5.43
2018-06-09T15:02:16.716Z,5.33
2018-06-09T15:04:43.735Z,3.90
2018-06-09T15:07:10.783Z,4.53
2018-06-09T15:09:38.123Z,5.50
2018-06-09T15:12:05.127Z,4.90
2018-06-09T15:14:32.164Z,4.10
2018-06-09T15:16:59.203Z,5.13
2018-06-09T15:19:26.230Z,4.17
2018-06-09T15:21:53.254Z,5.10
2018-06-09T15:24:20.303Z,4.00
2018-06-09T15:26:47.327Z,4.10
2018-06-09T15:29:14.355Z,4.50
2018-06-09T15:31:41.384Z,4.60
2018-06-09T15:34:08.390Z,5.17
2018-06-09T15:36:35.427Z,4.30
2018-06-09T15:39:02.516Z,5.33
2018-06-09T15:41:29.571Z,5.60
2018-06-09T15:43:56.639Z,4.90
2018-06-09T15:46:23.735Z,5.43
2018-06-09T15:48:50.783Z,5.17
2018-06-09T15:51:17.830Z,5.43
2018-06-09T15:53:44.896Z,5.80
2018-06-09T15:56:12.032Z,6.00
2018-06-09T15:58:39.157Z,5.60
2018-06-09T16:01:06.220Z,5.50
2018-06-09T16:03:33.287Z,5.17
2018-06-09T16:06:00.363Z,5.07
2018-06-09T16:08:27.555Z,4.70
2018-06-09T16:10:54.615Z,4.87
2018-06-09T16:13:21.663Z,5.00
2018-06-09T16:15:48.755Z,5.23
2018-06-09T16:18:15.807Z,5.43
2018-06-09T16:20:42.874Z,4.97
2018-06-09T16:23:09.946Z,5.30
2018-06-09T16:25:37.007Z,4.77
2018-06-09T16:28:04.048Z,6.10
2018-06-09T16:30:31.107Z,8.27
2018-06-09T16:32:58.155Z,4.97
2018-06-09T16:35:25.200Z,4.90
2018-06-09T16:37:52.300Z,5.90
2018-06-09T16:40:19.360Z,4.97
2018-06-09T16:42:46.399Z,5.23
2018-06-09T16:45:13.473Z,5.73
2018-06-09T16:47:40.553Z,7.57
2018-06-09T16:50:07.559Z,5.63
2018-06-09T16:52:35.044Z,5.07
2018-06-09T16:55:02.073Z,5.40
2018-06-09T16:57:29.115Z,6.37
2018-06-09T16:59:56.164Z,6.83
2018-06-09T17:02:23.188Z,7.07
2018-06-09T17:04:50.263Z,7.93
2018-06-09T17:07:17.331Z,7.53
2018-06-09T17:09:44.372Z,6.80
2018-06-09T17:12:11.415Z,6.00
2018-06-09T17:14:38.484Z,6.27
2018-06-09T17:17:05.525Z,5.73
2018-06-09T17:19:32.535Z,5.83
2018-06-09T17:21:59.761Z,5.87
2018-06-09T17:24:26.798Z,6.23
2018-06-09T17:26:53.848Z,6.10
2018-06-09T17:29:21.259Z,5.53
2018-06-09T17:31:48.292Z,6.07
2018-06-09T17:34:15.513Z,5.80
2018-06-09T17:36:42.619Z,5.83
2018-06-09T17:39:09.634Z,6.80
2018-06-09T17:41:36.650Z,6.40
2018-06-09T17:44:03.709Z,5.47
2018-06-09T17:46:30.743Z,6.33
2018-06-09T17:48:57.781Z,6.07
2018-06-09T17:51:24.862Z,5.57
2018-06-09T17:53:51.911Z,6.13
2018-06-09T17:56:18.971Z,5.83
2018-06-09T17:58:46.042Z,6.60
2018-06-09T18:01:13.103Z,6.20
2018-06-09T18:03:40.452Z,10.70
2018-06-09T18:06:07.559Z,6.40
2018-06-09T18:08:34.601Z,6.00
2018-06-09T18:11:01.683Z,7.93
2018-06-09T18:13:28.755Z,8.63
2018-06-09T18:15:55.692Z,8.63
2018-06-09T18:18:22.634Z,10.10
2018-06-09T18:20:49.688Z,10.67
2018-06-09T18:23:16.744Z,9.73
2018-06-09T18:25:44.748Z,9.40
2018-06-09T18:28:11.729Z,10.03
2018-06-09T18:30:38.660Z,11.37
2018-06-09T18:33:05.633Z,9.90
2018-06-09T18:35:32.600Z,10.97
2018-06-09T18:37:59.564Z,11.53
2018-06-09T18:40:26.536Z,10.80
2018-06-09T18:42:53.500Z,10.33
2018-06-09T18:45:20.476Z,10.80
2018-06-09T18:47:47.472Z,11.47
2018-06-09T18:50:14.429Z,10.90
2018-06-09T18:52:41.409Z,10.60
2018-06-09T18:55:08.437Z,9.83
2018-06-09T18:57:35.459Z,12.77
2018-06-09T19:00:02.644Z,11.23
2018-06-09T19:02:29.657Z,12.23
2018-06-09T19:04:56.632Z,11.20
2018-06-09T19:07:23.665Z,11.90
2018-06-09T19:09:50.696Z,10.90
2018-06-09T19:12:17.793Z,11.30
2018-06-09T19:14:44.746Z,12.47
2018-06-09T19:17:11.737Z,11.97
2018-06-09T19:19:38.753Z,10.90
2018-06-09T19:22:05.825Z,12.47
2018-06-09T19:24:32.720Z,12.87
2018-06-09T19:26:59.688Z,11.53
2018-06-09T19:29:26.717Z,12.43
2018-06-09T19:31:53.676Z,11.97
2018-06-09T19:34:20.649Z,11.10
2018-06-09T19:36:47.608Z,13.40
2018-06-09T19:39:14.537Z,13.20
2018-06-09T19:41:41.483Z,12.63
2018-06-09T19:44:08.431Z,12.20
2018-06-09T19:46:35.388Z,14.70
2018-06-09T19:49:02.327Z,13.80
2018-06-09T19:51:29.283Z,13.37
2018-06-09T19:53:56.249Z,14.27
2018-06-09T19:56:23.195Z,17.60
2018-06-09T19:58:50.149Z,14.17
2018-06-09T20:01:17.108Z,15.27
2018-06-09T20:03:44.083Z,13.43
2018-06-09T20:06:11.009Z,13.63
2018-06-09T20:08:37.988Z,13.30
2018-06-09T20:11:04.929Z,15.37
2018-06-09T20:13:31.876Z,12.87
2018-06-09T20:15:58.803Z,16.33
2018-06-09T20:18:25.758Z,19.27
2018-06-09T20:20:52.743Z,14.60
2018-06-09T20:23:19.757Z,15.80
2018-06-09T20:25:46.760Z,18.10
2018-06-09T20:28:13.849Z,27.13
2018-06-09T20:30:40.801Z,16.63
2018-06-09T20:33:07.762Z,16.10
2018-06-09T20:35:35.565Z,14.83
2018-06-09T20:38:03.315Z,15.87
2018-06-09T20:40:30.388Z,15.67
2018-06-09T20:42:57.352Z,15.73
2018-06-09T20:45:24.436Z,15.00
2018-06-09T20:47:51.397Z,19.23
2018-06-09T20:50:18.352Z,23.07
2018-06-09T20:52:45.304Z,16.40
2018-06-09T20:55:12.353Z,18.43
2018-06-09T20:57:39.365Z,17.90
2018-06-09T21:00:06.473Z,14.03
2018-06-09T21:02:33.439Z,15.50
2018-06-09T21:05:00.380Z,15.70
2018-06-09T21:07:27.325Z,15.10
2018-06-09T21:09:54.329Z,16.97
2018-06-09T21:12:21.395Z,15.60
2018-06-09T21:14:48.369Z,14.97
2018-06-09T21:17:15.346Z,16.20
2018-06-09T21:19:42.306Z,15.20
2018-06-09T21:22:09.273Z,15.80
2018-06-09T21:24:36.245Z,16.17
2018-06-09T21:27:08.915Z,15.60
2018-06-09T21:29:41.683Z,15.63
2018-06-09T21:32:09.790Z,15.20
2018-06-09T21:34:54.429Z,15.10
2018-06-09T21:37:57.341Z,17.33
2018-06-09T21:40:24.321Z,16.90
2018-06-09T21:42:57.211Z,15.23
2018-06-09T21:45:30.172Z,14.97
2018-06-09T21:47:57.124Z,15.90
2018-06-09T21:50:24.069Z,16.83
2018-06-09T21:52:51.040Z,17.63
2018-06-09T21:55:18.019Z,17.80
2018-06-09T21:57:45.794Z,17.37
2018-06-09T22:00:12.779Z,16.10
2018-06-09T22:02:39.716Z,16.23
2018-06-09T22:05:06.685Z,16.87
2018-06-09T22:07:33.689Z,16.93
2018-06-09T22:10:00.668Z,15.77
2018-06-09T22:12:27.686Z,17.57
2018-06-09T22:14:54.582Z,18.40
2018-06-09T22:17:21.570Z,17.10
2018-06-09T22:19:48.540Z,16.20
2018-06-09T22:22:15.505Z,18.10
2018-06-09T22:24:42.463Z,17.57
2018-06-09T22:27:09.449Z,18.37
2018-06-09T22:29:36.421Z,17.20
2018-06-09T22:32:03.364Z,18.03
2018-06-09T22:34:30.301Z,18.80
2018-06-09T22:36:57.272Z,19.17
2018-06-09T22:39:24.231Z,19.60
2018-06-09T22:41:51.185Z,21.50
2018-06-09T22:44:18.166Z,22.07
2018-06-09T22:46:45.177Z,21.00
2018-06-09T22:49:12.119Z,21.23
2018-06-09T22:51:39.075Z,21.33
2018-06-09T22:54:06.052Z,21.00
2018-06-09T22:56:33.004Z,23.10
2018-06-09T22:58:59.978Z,23.23
2018-06-09T23:01:27.065Z,24.47
2018-06-09T23:03:54.002Z,22.80
2018-06-09T23:06:20.945Z,24.60
2018-06-09T23:08:47.875Z,23.00
2018-06-09T23:11:14.831Z,22.80
2018-06-09T23:13:41.821Z,23.90
2018-06-09T23:16:08.767Z,21.80
2018-06-09T23:18:35.712Z,24.50
2018-06-09T23:21:02.715Z,24.10
2018-06-09T23:23:29.674Z,22.90
2018-06-09T23:25:56.628Z,24.80
2018-06-09T23:28:23.684Z,23.40
2018-06-09T23:30:50.620Z,21.00
2018-06-09T23:33:17.560Z,19.33
2018-06-09T23:35:44.558Z,19.70
2018-06-09T23:38:11.494Z,20.13
2018-06-09T23:40:38.428Z,20.10
2018-06-09T23:43:05.392Z,19.20
2018-06-09T23:45:32.357Z,21.07
2018-06-09T23:47:59.309Z,20.00
2018-06-09T23:50:26.270Z,18.00
2018-06-09T23:52:53.251Z,18.30
2018-06-09T23:55:20.208Z,20.37
2018-06-09T23:57:47.180Z,18.30
